Time;durP1;ratioP1;P1;durP2;ratioP2;P2;SDS_P1;SDS_P2;PMS_P1;PMS_P2;Temp;Humidity;BMP_temperature;BMP_pressure;BME280_temperature;BME280_humidity;BME280_pressure;Samples;Min_cycle;Max_cycle;Signal;HPM_P1;HPM_P2
2022/08/27 00:00:23;;;;;;;16.00;8.90;;;;;;;23.23;46.07;99782.50;106265;1270;108951;-77
2022/08/27 00:03:10;;;;;;;14.90;9.10;;;;;;;23.21;46.20;99783.20;106263;1270;109323;-77
2022/08/27 00:05:43;;;;;;;13.60;8.80;;;;;;;23.19;46.24;99777.38;106214;1271;97822;-78
2022/08/27 00:08:15;;;;;;;11.50;9.40;;;;;;;23.15;46.49;99773.63;106207;1270;137669;-78
2022/08/27 00:10:47;;;;;;;14.50;9.20;;;;;;;23.12;46.55;99768.44;106245;1270;112100;-77
2022/08/27 00:13:20;;;;;;;13.90;9.20;;;;;;;23.08;46.76;99764.52;106091;1270;139511;-77
2022/08/27 00:15:52;;;;;;;14.70;9.50;;;;;;;23.05;47.00;99762.40;106269;1270;108197;-78
2022/08/27 00:18:25;;;;;;;17.60;9.10;;;;;;;23.03;47.12;99755.86;106255;1270;98325;-79
2022/08/27 00:20:57;;;;;;;13.20;9.10;;;;;;;23.01;47.34;99755.66;106297;1270;97810;-78
2022/08/27 00:23:30;;;;;;;17.80;9.60;;;;;;;22.98;47.40;99750.23;106246;1270;111295;-78
2022/08/27 00:26:03;;;;;;;16.80;9.50;;;;;;;22.97;47.44;99748.25;106054;1270;137770;-77
2022/08/27 00:28:36;;;;;;;12.50;9.00;;;;;;;22.94;47.77;99750.08;106248;1270;108828;-78
2022/08/27 00:31:09;;;;;;;15.00;9.50;;;;;;;22.92;47.90;99748.31;106069;1270;138249;-77
2022/08/27 00:33:43;;;;;;;15.60;9.70;;;;;;;22.89;48.01;99746.40;106263;1270;97835;-76
2022/08/27 00:36:16;;;;;;;14.40;9.50;;;;;;;22.88;48.24;99745.85;106226;1270;112646;-77
2022/08/27 00:38:48;;;;;;;16.90;10.20;;;;;;;22.85;48.39;99745.39;106176;1271;139621;-77
2022/08/27 00:41:25;;;;;;;13.60;9.80;;;;;;;22.82;48.51;99747.94;106205;1270;109073;-78
2022/08/27 00:43:59;;;;;;;17.80;9.60;;;;;;;22.80;48.72;99750.78;106146;1270;139248;-77
2022/08/27 00:46:42;;;;;;;14.30;9.90;;;;;;;22.77;48.99;99755.10;106306;1270;97842;-76
2022/08/27 00:49:19;;;;;;;18.20;10.00;;;;;;;22.74;49.13;99754.21;106228;1270;139465;-79
2022/08/27 00:51:57;;;;;;;16.80;9.80;;;;;;;22.70;49.35;99756.70;106349;1270;108831;-76
2022/08/27 00:54:30;;;;;;;20.30;10.10;;;;;;;22.65;49.54;99754.08;106341;1270;108767;-78
2022/08/27 00:57:03;;;;;;;16.00;10.00;;;;;;;22.63;49.70;99752.39;106227;1271;97832;-79
2022/08/27 00:59:36;;;;;;;14.30;10.20;;;;;;;22.60;49.85;99751.36;106350;1270;97904;-78
2022/08/27 01:02:24;;;;;;;20.10;10.30;;;;;;;22.58;50.06;99747.50;106142;1270;140167;-77
2022/08/27 01:05:02;;;;;;;17.60;10.20;;;;;;;22.54;50.15;99748.67;106282;1270;108988;-78
2022/08/27 01:07:39;;;;;;;20.00;10.50;;;;;;;22.51;50.37;99749.21;106171;1270;138529;-77
2022/08/27 01:10:15;;;;;;;14.30;9.70;;;;;;;22.46;50.45;99743.95;106234;1270;97852;-77
2022/08/27 01:12:49;;;;;;;21.50;10.40;;;;;;;22.42;50.76;99742.21;106234;1270;137965;-78
2022/08/27 01:15:27;;;;;;;14.20;9.50;;;;;;;22.39;50.94;99741.04;106322;1270;112441;-78
2022/08/27 01:18:02;;;;;;;16.20;10.10;;;;;;;22.37;51.16;99740.53;106333;1270;109094;-78
2022/08/27 01:20:42;;;;;;;11.70;9.50;;;;;;;22.35;51.21;99739.83;104923;1270;138041;-78
2022/08/27 01:23:22;;;;;;;17.70;10.60;;;;;;;22.31;51.30;99740.37;106267;1270;97841;-78
2022/08/27 01:25:54;;;;;;;13.30;9.70;;;;;;;22.27;51.50;99740.51;106207;1270;138190;-78
2022/08/27 01:28:27;;;;;;;24.90;10.70;;;;;;;22.23;51.53;99740.80;106334;1270;116259;-77
2022/08/27 01:31:10;;;;;;;14.70;9.90;;;;;;;22.20;51.97;99741.27;106858;1270;139634;-78
2022/08/27 01:33:53;;;;;;;16.10;10.40;;;;;;;22.17;52.02;99739.63;106504;1270;109145;-78
2022/08/27 01:36:26;;;;;;;15.90;9.10;;;;;;;22.14;52.18;99738.50;106483;1270;97839;-78
2022/08/27 01:38:58;;;;;;;16.80;10.30;;;;;;;22.10;52.33;99733.48;107855;1270;96128;-78
2022/08/27 01:41:31;;;;;;;15.70;10.20;;;;;;;22.09;52.39;99733.80;106487;1270;111475;-78
2022/08/27 01:44:04;;;;;;;15.10;9.50;;;;;;;22.07;52.46;99732.51;106195;1270;138799;-78
2022/08/27 01:46:36;;;;;;;17.20;10.20;;;;;;;22.07;52.45;99733.81;106251;1270;108867;-78
2022/08/27 01:49:11;;;;;;;15.60;10.10;;;;;;;22.06;52.89;99733.37;106111;1270;138857;-78
2022/08/27 01:51:43;;;;;;;18.70;10.80;;;;;;;22.06;53.00;99734.77;106656;1269;97832;-78
2022/08/27 01:54:15;;;;;;;13.40;10.50;;;;;;;22.04;52.98;99730.30;107497;1270;112560;-78
2022/08/27 01:56:47;;;;;;;15.20;10.50;;;;;;;22.02;53.01;99737.55;106179;1270;138727;-77
2022/08/27 01:59:19;;;;;;;15.00;10.80;;;;;;;22.00;53.20;99737.89;106247;1271;110168;-79
2022/08/27 02:01:54;;;;;;;15.70;10.70;;;;;;;21.99;53.14;99736.55;106213;1269;138819;-79
2022/08/27 02:04:26;;;;;;;17.30;11.40;;;;;;;21.97;53.28;99733.75;107849;1270;96169;-79
2022/08/27 02:06:59;;;;;;;18.20;11.50;;;;;;;21.96;53.46;99732.45;107734;1270;138865;-79
2022/08/27 02:09:32;;;;;;;15.50;10.70;;;;;;;21.94;53.29;99728.37;107121;1269;108998;-77
2022/08/27 02:12:05;;;;;;;15.10;11.20;;;;;;;21.92;53.53;99730.32;106310;1270;109844;-79
2022/08/27 02:14:37;;;;;;;16.80;10.90;;;;;;;21.90;53.71;99726.80;106336;1270;139846;-78
2022/08/27 02:17:11;;;;;;;17.70;10.70;;;;;;;21.88;53.68;99726.70;106690;1270;97893;-77
2022/08/27 02:19:44;;;;;;;16.70;11.10;;;;;;;21.88;53.97;99723.97;106086;1271;138780;-77
2022/08/27 02:22:16;;;;;;;15.90;10.70;;;;;;;21.86;53.77;99725.36;106921;1270;109014;-78
2022/08/27 02:24:48;;;;;;;18.90;11.20;;;;;;;21.85;54.10;99722.42;107385;1270;141080;-78
2022/08/27 02:27:21;;;;;;;16.60;11.30;;;;;;;21.83;54.07;99720.69;107822;1270;96007;-77
2022/08/27 02:29:54;;;;;;;16.40;11.30;;;;;;;21.80;54.10;99718.64;107828;1270;96398;-78
2022/08/27 02:32:27;;;;;;;18.30;11.30;;;;;;;21.78;54.17;99718.48;107773;1270;138614;-77
2022/08/27 02:35:02;;;;;;;;;;;;;;;21.75;54.37;99725.80;107884;1269;109322;-78
2022/08/27 02:37:36;;;;;;;18.50;11.10;;;;;;;21.72;54.40;99730.15;107331;1269;124983;-77
2022/08/27 02:40:12;;;;;;;17.40;11.60;;;;;;;21.68;54.48;99735.90;106341;1270;97844;-77
2022/08/27 02:42:45;;;;;;;17.60;11.90;;;;;;;21.63;54.41;99741.61;107707;1270;139007;-78
2022/08/27 02:45:19;;;;;;;18.40;11.70;;;;;;;21.61;54.47;99738.98;107466;1271;112462;-78
2022/08/27 02:47:52;;;;;;;19.50;12.40;;;;;;;21.56;54.77;99735.77;106274;1270;107851;-77
2022/08/27 02:50:25;;;;;;;17.10;11.90;;;;;;;21.52;54.67;99740.69;106180;1270;138717;-77
2022/08/27 02:52:58;;;;;;;17.80;11.90;;;;;;;21.47;54.82;99738.41;106205;1270;97918;-77
2022/08/27 02:55:31;;;;;;;17.80;11.30;;;;;;;21.42;55.00;99735.85;106172;1271;138431;-76
2022/08/27 02:58:04;;;;;;;19.00;12.10;;;;;;;21.38;55.12;99738.72;107354;1270;112637;-76
2022/08/27 03:00:36;;;;;;;17.10;11.40;;;;;;;21.34;55.09;99737.29;106430;1270;138986;-77
2022/08/27 03:03:09;;;;;;;17.40;11.20;;;;;;;21.29;55.47;99736.11;106265;1270;107627;-76
2022/08/27 03:05:42;;;;;;;15.00;11.70;;;;;;;21.24;55.75;99735.09;107503;1269;98520;-77
2022/08/27 03:08:14;;;;;;;16.70;11.70;;;;;;;21.18;55.72;99729.43;106226;1270;140307;-77
2022/08/27 03:10:46;;;;;;;17.40;11.80;;;;;;;21.14;56.05;99731.50;106313;1270;113516;-77
2022/08/27 03:13:18;;;;;;;20.80;11.60;;;;;;;21.12;56.19;99728.11;106207;1270;138630;-77
2022/08/27 03:15:50;;;;;;;18.30;12.40;;;;;;;21.10;56.42;99728.80;106270;1270;107355;-79
2022/08/27 03:18:24;;;;;;;17.10;12.70;;;;;;;21.09;56.48;99731.91;106769;1271;97831;-78
2022/08/27 03:20:58;;;;;;;16.70;12.10;;;;;;;21.07;56.53;99729.11;107763;1270;139972;-78
2022/08/27 03:23:32;;;;;;;20.40;12.80;;;;;;;21.05;56.89;99727.10;106527;1270;112517;-78
2022/08/27 03:26:10;;;;;;;21.90;12.50;;;;;;;21.05;57.05;99725.52;106353;1270;138630;-77
2022/08/27 03:28:42;;;;;;;19.80;12.70;;;;;;;21.05;56.98;99729.30;106292;1270;107513;-78
2022/08/27 03:31:25;;;;;;;19.30;12.70;;;;;;;21.03;56.94;99732.81;107146;1270;139737;-77
2022/08/27 03:34:01;;;;;;;22.00;13.20;;;;;;;21.00;56.82;99731.41;106365;1270;97871;-78
2022/08/27 03:36:33;;;;;;;22.50;12.90;;;;;;;20.98;57.27;99727.73;106167;1270;138704;-76
2022/08/27 03:39:05;;;;;;;22.50;12.80;;;;;;;20.97;57.39;99725.00;106435;1270;108202;-78
2022/08/27 03:41:38;;;;;;;18.70;12.70;;;;;;;20.95;57.59;99724.75;106330;1270;107935;-78
2022/08/27 03:44:26;;;;;;;23.80;13.20;;;;;;;20.93;57.63;99724.20;106141;1270;139797;-78
2022/08/27 03:46:58;;;;;;;20.40;13.50;;;;;;;20.92;57.74;99725.39;107799;1270;96331;-79
2022/08/27 03:49:31;;;;;;;17.90;12.90;;;;;;;20.90;57.53;99726.09;107762;1270;138756;-79
2022/08/27 03:52:04;;;;;;;23.20;12.90;;;;;;;20.88;57.87;99725.40;107331;1270;108890;-77
2022/08/27 03:54:38;;;;;;;18.60;12.50;;;;;;;20.88;58.09;99728.21;107384;1270;140535;-78
2022/08/27 03:57:10;;;;;;;19.10;13.50;;;;;;;20.89;57.83;99727.46;107839;1270;96066;-78
2022/08/27 03:59:42;;;;;;;19.40;13.30;;;;;;;20.89;58.02;99725.27;106396;1270;97805;-78
2022/08/27 04:02:15;;;;;;;17.60;12.80;;;;;;;20.91;58.30;99723.94;106452;1270;138933;-78
2022/08/27 04:04:47;;;;;;;19.40;13.40;;;;;;;20.93;58.06;99726.55;106273;1270;107910;-78
2022/08/27 04:07:20;;;;;;;17.30;12.70;;;;;;;20.95;58.09;99725.10;106200;1270;138876;-78
2022/08/27 04:09:52;;;;;;;18.00;13.10;;;;;;;20.98;58.04;99725.57;106283;1270;97831;-77
2022/08/27 04:12:25;;;;;;;20.00;12.90;;;;;;;21.00;58.25;99719.95;106276;1270;97848;-77
2022/08/27 04:14:57;;;;;;;19.40;13.20;;;;;;;21.01;58.24;99723.58;106956;1270;138943;-78
2022/08/27 04:17:30;;;;;;;19.00;12.90;;;;;;;21.04;58.21;99722.79;107745;1270;107908;-78
2022/08/27 04:20:03;;;;;;;19.50;13.20;;;;;;;21.07;58.14;99725.71;106182;1270;138782;-78
2022/08/27 04:22:55;;;;;;;23.60;13.10;;;;;;;21.11;58.16;99722.95;106260;1270;97955;-77
2022/08/27 04:25:27;;;;;;;20.10;13.30;;;;;;;21.14;58.24;99725.61;106188;1269;140540;-77
2022/08/27 04:27:59;;;;;;;17.80;12.70;;;;;;;21.21;58.23;99721.73;106335;1269;112553;-77
2022/08/27 04:30:32;;;;;;;18.30;13.20;;;;;;;21.31;58.06;99721.23;107135;1269;108835;-77
2022/08/27 04:33:04;;;;;;;18.50;12.80;;;;;;;21.47;58.25;99722.33;106311;1270;108888;-77
2022/08/27 04:35:36;;;;;;;20.20;12.80;;;;;;;21.63;58.33;99722.05;106822;1270;97828;-77
2022/08/27 04:38:09;;;;;;;21.40;12.90;;;;;;;21.73;58.12;99722.74;107326;1270;139231;-77
2022/08/27 04:43:28;;;;;;;22.20;13.50;;;;;;;22.06;57.66;99727.48;106472;1271;139030;-77
2022/08/27 04:46:00;;;;;;;18.70;12.60;;;;;;;22.29;57.45;99727.04;107141;1269;109113;-78
2022/08/27 04:48:33;;;;;;;21.10;12.80;;;;;;;22.73;57.04;99726.45;106402;1270;97923;-77
2022/08/27 04:51:09;;;;;;;21.10;13.00;;;;;;;23.25;56.22;99721.15;107711;1271;96073;-76
2022/08/27 04:53:45;;;;;;;22.10;12.40;;;;;;;23.83;55.47;99717.48;106902;1271;112630;-77
2022/08/27 04:56:20;;;;;;;21.70;11.50;;;;;;;24.42;54.54;99718.61;106403;1270;138569;-77
2022/08/27 04:58:54;;;;;;;20.60;12.40;;;;;;;24.98;53.30;99714.30;107892;1270;108840;-77
2022/08/27 05:01:28;;;;;;;24.30;12.40;;;;;;;25.58;52.22;99713.70;106280;1271;139737;-77
2022/08/27 05:04:00;;;;;;;19.70;12.00;;;;;;;26.03;51.13;99715.67;107695;1268;95885;-77
2022/08/27 05:06:33;;;;;;;14.90;10.70;;;;;;;26.37;50.74;99715.77;107717;1268;112563;-78
2022/08/27 05:09:07;;;;;;;19.80;12.00;;;;;;;26.86;50.32;99717.63;106388;1268;108749;-77
2022/08/27 05:11:39;;;;;;;18.20;11.90;;;;;;;27.42;49.65;99714.66;106399;1268;108890;-76
2022/08/27 05:14:15;;;;;;;18.30;12.30;;;;;;;28.04;48.36;99714.09;106324;1268;139925;-78
2022/08/27 05:16:48;;;;;;;16.60;12.10;;;;;;;28.64;47.13;99712.55;106494;1270;97841;-76
2022/08/27 05:19:20;;;;;;;15.40;11.00;;;;;;;29.16;46.12;99712.59;106441;1268;138188;-77
2022/08/27 05:21:54;;;;;;;16.80;10.60;;;;;;;29.62;45.23;99707.74;106917;1268;109074;-77
2022/08/27 05:24:26;;;;;;;16.60;11.70;;;;;;;30.15;44.86;99703.22;107923;1267;108787;-77
2022/08/27 05:26:58;;;;;;;26.40;11.50;;;;;;;30.66;43.79;99704.63;107845;1268;138839;-77
2022/08/27 05:29:32;;;;;;;22.10;10.90;;;;;;;31.23;43.16;99701.26;107935;1268;96253;-77
2022/08/27 05:32:04;;;;;;;20.90;11.00;;;;;;;31.86;41.99;99699.16;107820;1267;138286;-77
2022/08/27 05:34:37;;;;;;;14.30;10.40;;;;;;;32.35;41.38;99699.55;107948;1267;109048;-77
2022/08/27 05:37:10;;;;;;;17.20;10.00;;;;;;;32.79;40.44;99693.91;107821;1268;138147;-77
2022/08/27 05:39:43;;;;;;;17.40;10.00;;;;;;;33.08;39.58;99703.12;107930;1268;96188;-77
2022/08/27 05:42:15;;;;;;;15.70;9.80;;;;;;;33.27;38.82;99708.56;107947;1268;95993;-78
2022/08/27 05:44:47;;;;;;;13.80;10.20;;;;;;;33.46;38.33;99703.23;107803;1268;139136;-78
2022/08/27 05:47:19;;;;;;;18.40;9.90;;;;;;;33.72;37.97;99706.71;106481;1268;108672;-77
2022/08/27 05:49:53;;;;;;;17.40;9.30;;;;;;;34.04;37.27;99705.88;106305;1268;137813;-78
2022/08/27 05:52:26;;;;;;;13.30;9.10;;;;;;;34.29;36.61;99703.59;106610;1268;97816;-77
2022/08/27 05:54:58;;;;;;;16.60;9.40;;;;;;;34.48;36.30;99704.02;106843;1268;137784;-78
2022/08/27 05:57:30;;;;;;;14.90;8.30;;;;;;;34.87;36.16;99703.86;106447;1267;112575;-77
2022/08/27 06:02:50;;;;;;;15.50;8.60;;;;;;;36.01;34.15;99702.88;105959;1273;137889;-77
2022/08/27 06:05:23;;;;;;;14.40;9.20;;;;;;;36.73;33.30;99701.39;106110;1274;98001;-76
2022/08/27 06:07:55;;;;;;;15.50;8.70;;;;;;;37.50;32.41;99698.83;107512;1273;138450;-77
2022/08/27 06:10:28;;;;;;;17.40;8.60;;;;;;;38.27;31.39;99693.16;107568;1274;112590;-77
2022/08/27 06:13:02;;;;;;;16.80;8.70;;;;;;;38.92;30.55;99695.08;107505;1273;138664;-77
2022/08/27 06:15:36;;;;;;;11.90;8.10;;;;;;;39.44;30.14;99695.45;106941;1274;106600;-77
2022/08/27 06:18:08;;;;;;;15.70;8.80;;;;;;;39.96;29.42;99686.73;107544;1274;95876;-77
2022/08/27 06:20:41;;;;;;;15.40;8.90;;;;;;;40.31;28.65;99690.41;106648;1273;137660;-77
2022/08/27 06:23:14;;;;;;;14.20;8.70;;;;;;;40.66;28.30;99693.40;106131;1273;112545;-77
2022/08/27 06:25:46;;;;;;;15.70;8.90;;;;;;;41.02;27.86;99693.45;106010;1273;139570;-77
2022/08/27 06:28:22;;;;;;;13.90;8.20;;;;;;;41.25;27.38;99697.52;106100;1273;107873;-78
2022/08/27 06:30:54;;;;;;;16.00;8.00;;;;;;;41.27;27.04;99696.48;106030;1273;138232;-77
2022/08/27 06:33:26;;;;;;;10.80;7.90;;;;;;;41.30;26.84;99703.80;106048;1273;98013;-77
2022/08/27 06:36:00;;;;;;;17.30;8.20;;;;;;;41.45;26.59;99705.58;106042;1273;112537;-78
2022/08/27 06:38:33;;;;;;;14.60;7.80;;;;;;;41.49;26.52;99704.95;105957;1273;138416;-76
2022/08/27 06:41:07;;;;;;;17.30;7.90;;;;;;;41.84;26.62;99705.03;106181;1268;107934;-77
2022/08/27 06:43:55;;;;;;;14.10;7.70;;;;;;;42.45;25.92;99701.91;106319;1268;138451;-77
2022/08/27 06:46:29;;;;;;;15.40;8.30;;;;;;;42.77;25.50;99706.14;106426;1268;97943;-77
2022/08/27 06:49:02;;;;;;;14.90;7.30;;;;;;;43.31;25.16;99702.06;106318;1268;137923;-77
2022/08/27 06:51:36;;;;;;;9.90;7.40;;;;;;;43.78;24.85;99704.53;106437;1268;109112;-77
2022/08/27 06:54:11;;;;;;;13.50;7.80;;;;;;;44.23;24.36;99700.38;106339;1268;108935;-77
2022/08/27 06:56:44;;;;;;;16.80;8.50;;;;;;;44.59;23.56;99699.05;107789;1268;138876;-77
2022/08/27 06:59:18;;;;;;;14.30;8.00;;;;;;;44.93;22.88;99705.07;107935;1268;96061;-77
2022/08/27 07:01:51;;;;;;;12.00;7.40;;;;;;;45.23;22.71;99703.98;107849;1268;138443;-77
2022/08/27 07:04:25;;;;;;;10.10;7.60;;;;;;;45.40;22.31;99706.40;106597;1268;109384;-77
2022/08/27 07:07:06;;;;;;;15.00;7.50;;;;;;;45.67;21.94;99701.64;106229;1268;138220;-77
2022/08/27 07:09:39;;;;;;;13.70;7.80;;;;;;;46.04;22.09;99704.50;107742;1268;96375;-77
2022/08/27 07:12:11;;;;;;;12.90;7.30;;;;;;;46.50;21.35;99704.98;106454;1268;97913;-77
2022/08/27 07:14:43;;;;;;;13.80;7.20;;;;;;;46.66;20.99;99698.25;106652;1267;137942;-77
2022/08/27 07:17:16;;;;;;;14.60;7.70;;;;;;;46.73;20.98;99700.04;106447;1269;107938;-77
2022/08/27 07:19:48;;;;;;;11.30;7.40;;;;;;;47.07;20.89;99696.59;106457;1268;137867;-78
2022/08/27 07:22:20;;;;;;;11.50;7.70;;;;;;;47.39;20.65;99696.05;107002;1270;98013;-77
2022/08/27 07:24:53;;;;;;;15.00;7.30;;;;;;;47.65;20.59;99693.62;106268;1268;138365;-77
2022/08/27 07:27:25;;;;;;;14.00;7.30;;;;;;;47.83;20.38;99689.17;107589;1268;112509;-78
2022/08/27 07:29:58;;;;;;;12.80;7.20;;;;;;;47.80;20.02;99691.39;107943;1268;109421;-78
2022/08/27 07:32:32;;;;;;;12.30;7.30;;;;;;;47.81;20.10;99690.26;107840;1268;138669;-78
2022/08/27 07:35:08;;;;;;;15.90;7.30;;;;;;;47.77;19.78;99690.40;107931;1268;96278;-78
2022/08/27 07:37:41;;;;;;;13.20;7.20;;;;;;;47.67;19.61;99690.39;107860;1268;138620;-78
2022/08/27 07:40:15;;;;;;;14.70;7.50;;;;;;;47.69;19.50;99694.05;107966;1268;112511;-78
2022/08/27 07:45:46;;;;;;;16.10;6.90;;;;;;;47.50;19.17;99694.15;106568;1268;107699;-78
2022/08/27 07:48:18;;;;;;;14.20;7.40;;;;;;;47.32;19.39;99691.05;106425;1268;97862;-77
2022/08/27 07:50:51;;;;;;;16.10;6.50;;;;;;;47.00;19.24;99688.77;107637;1268;137613;-78
2022/08/27 07:53:23;;;;;;;13.40;6.70;;;;;;;46.76;19.69;99687.80;107995;1268;111092;-78
2022/08/27 07:55:56;;;;;;;13.30;7.00;;;;;;;46.67;19.57;99690.42;107823;1268;138036;-78
2022/08/27 07:58:28;;;;;;;14.10;6.60;;;;;;;46.35;19.20;99688.21;107961;1268;108759;-78
2022/08/27 08:01:01;;;;;;;15.70;7.60;;;;;;;46.25;19.76;99687.63;107806;1268;138111;-78
2022/08/27 08:03:34;;;;;;;15.90;7.00;;;;;;;46.37;19.63;99682.98;107970;1267;95921;-78
2022/08/27 08:06:08;;;;;;;17.60;6.60;;;;;;;46.73;19.91;99684.41;107951;1268;112956;-79
2022/08/27 08:08:41;;;;;;;16.30;7.00;;;;;;;46.98;18.79;99684.54;107815;1268;137880;-78
2022/08/27 08:11:17;;;;;;;13.90;6.70;;;;;;;47.07;18.75;99687.33;107947;1268;108847;-79
2022/08/27 08:13:48;;;;;;;;;;;;;;;46.96;18.67;99685.84;107825;1268;138681;-78
2022/08/27 08:16:23;;;;;;;18.10;6.80;;;;;;;46.78;18.81;99688.19;107962;1268;96198;-78
2022/08/27 08:19:01;;;;;;;17.40;6.50;;;;;;;46.53;18.81;99687.27;107854;1268;138508;-79
2022/08/27 08:21:34;;;;;;;12.50;6.40;;;;;;;46.72;18.67;99690.27;106751;1268;108081;-78
2022/08/27 08:24:07;;;;;;;14.40;7.10;;;;;;;47.01;18.20;99687.76;106418;1268;109088;-78
2022/08/27 08:26:40;;;;;;;18.90;6.60;;;;;;;47.25;17.62;99688.56;106237;1268;137870;-78
2022/08/27 08:29:13;;;;;;;11.30;6.40;;;;;;;47.43;17.56;99691.77;106664;1268;97835;-78
2022/08/27 08:31:49;;;;;;;12.10;6.90;;;;;;;47.32;17.73;99693.39;106288;1268;138069;-78
2022/08/27 08:34:22;;;;;;;15.40;6.50;;;;;;;47.27;17.68;99691.80;106774;1268;108876;-78
2022/08/27 08:36:54;;;;;;;9.60;6.30;;;;;;;47.65;17.72;99696.98;106272;1269;138735;-77
2022/08/27 08:39:26;;;;;;;12.50;6.30;;;;;;;48.07;17.47;99691.86;106712;1268;97777;-78
2022/08/27 08:42:01;;;;;;;11.80;6.40;;;;;;;48.38;17.16;99693.60;106854;1268;97821;-78
2022/08/27 08:44:36;;;;;;;11.90;6.20;;;;;;;48.61;16.75;99691.73;106699;1269;138008;-78
2022/08/27 08:47:14;;;;;;;9.00;6.00;;;;;;;48.66;16.78;99700.70;107945;1268;108893;-79
2022/08/27 08:49:55;;;;;;;11.60;6.00;;;;;;;48.62;16.91;99698.46;106420;1269;137756;-79
2022/08/27 08:52:43;;;;;;;10.00;5.60;;;;;;;48.74;16.61;99696.66;106403;1268;97905;-79
2022/08/27 08:55:23;;;;;;;15.30;5.90;;;;;;;48.48;16.63;99697.45;106309;1271;139502;-78
2022/08/27 08:58:07;;;;;;;11.30;5.90;;;;;;;48.25;16.53;99694.39;106443;1271;112483;-79
2022/08/27 09:00:42;;;;;;;13.10;6.20;;;;;;;48.05;16.74;99696.92;106457;1269;138238;-78
2022/08/27 09:03:16;;;;;;;12.10;5.90;;;;;;;48.26;16.49;99695.98;106406;1268;108808;-78
2022/08/27 09:05:54;;;;;;;12.30;6.40;;;;;;;48.60;16.17;99692.25;106441;1268;97831;-79
2022/08/27 09:08:32;;;;;;;12.20;5.60;;;;;;;48.72;15.53;99692.41;107192;1268;137677;-79
2022/08/27 09:11:15;;;;;;;;;;;;;;;48.61;15.51;99696.88;106819;1270;112435;-79
2022/08/27 09:13:53;;;;;;;14.50;5.40;;;;;;;48.50;15.41;99694.41;106854;1268;124162;-79
2022/08/27 09:16:25;;;;;;;15.70;6.00;;;;;;;48.39;14.62;99694.85;107948;1268;108902;-78
2022/08/27 09:18:58;;;;;;;17.30;5.50;;;;;;;48.04;14.50;99694.23;107018;1268;139306;-78
2022/08/27 09:21:40;;;;;;;10.10;5.80;;;;;;;47.77;14.84;99690.17;106386;1270;97813;-77
2022/08/27 09:24:19;;;;;;;9.90;5.90;;;;;;;47.53;14.65;99688.39;106404;1268;112525;-78
2022/08/27 09:26:51;;;;;;;9.70;5.80;;;;;;;47.26;15.08;99687.41;106321;1268;138715;-77
2022/08/27 09:29:28;;;;;;;13.60;6.50;;;;;;;47.08;14.99;99682.38;107233;1268;108827;-79
2022/08/27 09:32:05;;;;;;;16.50;6.50;;;;;;;46.75;15.41;99686.37;106776;1268;139164;-79
2022/08/27 09:34:39;;;;;;;17.10;7.00;;;;;;;46.47;15.19;99683.54;106416;1268;97677;-79
2022/08/27 09:37:15;;;;;;;13.40;6.80;;;;;;;45.99;15.19;99682.63;106272;1268;139285;-78
2022/08/27 09:39:52;;;;;;;16.30;7.40;;;;;;;45.69;15.72;99681.08;106420;1268;108717;-78
2022/08/27 09:42:34;;;;;;;14.90;7.20;;;;;;;45.46;15.88;99680.98;106400;1268;108746;-78
2022/08/27 09:45:12;;;;;;;13.30;7.40;;;;;;;45.33;15.95;99675.80;106406;1271;97830;-78
2022/08/27 09:47:47;;;;;;;12.50;7.40;;;;;;;45.31;16.89;99674.50;106302;1271;97804;-79
2022/08/27 09:50:24;;;;;;;17.10;6.90;;;;;;;45.33;17.28;99675.97;106657;1268;137687;-78
2022/08/27 09:52:58;;;;;;;18.40;7.80;;;;;;;45.24;17.33;99670.29;106416;1271;109430;-79
2022/08/27 09:55:43;;;;;;;10.10;7.60;;;;;;;45.21;16.99;99671.65;107726;1268;138184;-79
2022/08/27 09:58:22;;;;;;;15.80;7.80;;;;;;;45.32;16.23;99667.56;107902;1268;96052;-79
2022/08/27 10:01:03;;;;;;;17.00;8.10;;;;;;;45.37;16.56;99664.25;107831;1268;137876;-78
2022/08/27 10:03:35;;;;;;;10.90;8.70;;;;;;;45.41;16.21;99667.23;107641;1268;113174;-79
2022/08/27 10:06:09;;;;;;;11.30;7.70;;;;;;;45.28;16.52;99667.34;106658;1270;108956;-79
2022/08/27 10:08:46;;;;;;;13.00;7.60;;;;;;;45.35;17.03;99666.38;106234;1271;137882;-79
2022/08/27 10:11:23;;;;;;;15.00;8.80;;;;;;;45.28;16.94;99666.85;107019;1269;97867;-79
2022/08/27 10:14:04;;;;;;;17.10;9.20;;;;;;;45.38;16.32;99665.29;107829;1268;139443;-78
2022/08/27 10:16:54;;;;;;;13.60;8.30;;;;;;;45.07;15.60;99660.75;106993;1270;112654;-77
2022/08/27 10:19:42;;;;;;;12.00;8.70;;;;;;;44.94;15.91;99660.45;106370;1270;138576;-78
2022/08/27 10:22:22;;;;;;;15.10;8.80;;;;;;;44.84;15.53;99661.45;106340;1270;108885;-77
2022/08/27 10:25:09;;;;;;;16.70;9.30;;;;;;;44.52;15.80;99652.08;106379;1269;139627;-76
2022/08/27 10:27:51;;;;;;;13.50;8.70;;;;;;;44.36;16.11;99653.77;107254;1268;97703;-77
2022/08/27 10:30:31;;;;;;;15.40;9.20;;;;;;;44.16;16.24;99653.36;107480;1270;112634;-78
2022/08/27 10:33:10;;;;;;;16.90;8.90;;;;;;;44.00;16.82;99649.77;106563;1270;108777;-77
2022/08/27 10:35:47;;;;;;;11.80;8.90;;;;;;;44.00;16.74;99649.59;106341;1270;109268;-76
2022/08/27 10:38:36;;;;;;;18.30;9.50;;;;;;;43.83;16.45;99657.15;106250;1269;138142;-76
2022/08/27 10:41:20;;;;;;;17.70;9.80;;;;;;;43.51;16.17;99662.64;106352;1271;97822;-76
2022/08/27 10:44:16;;;;;;;14.20;10.00;;;;;;;43.00;16.19;99652.30;107182;1269;138190;-77
2022/08/27 10:47:10;;;;;;;11.70;9.30;;;;;;;42.35;17.06;99645.48;107937;1268;108670;-76
2022/08/27 10:49:51;;;;;;;15.30;9.50;;;;;;;42.12;17.39;99647.89;107804;1269;138130;-77
2022/08/27 10:52:29;;;;;;;17.20;9.80;;;;;;;41.93;17.42;99644.16;107843;1270;96037;-76
2022/08/27 10:55:09;;;;;;;16.40;9.80;;;;;;;41.49;17.24;99639.43;107797;1270;137849;-76
2022/08/27 10:58:01;;;;;;;15.40;10.60;;;;;;;41.01;17.46;99642.73;107963;1268;112708;-76
2022/08/27 11:00:42;;;;;;;14.60;9.50;;;;;;;40.72;18.38;99641.02;107859;1271;109037;-76
2022/08/27 11:03:22;;;;;;;13.40;9.90;;;;;;;40.50;18.70;99640.52;107873;1268;109431;-76
2022/08/27 11:05:55;;;;;;;16.20;9.80;;;;;;;40.34;18.73;99638.79;107936;1268;96101;-76
2022/08/27 11:08:36;;;;;;;15.50;9.20;;;;;;;40.25;18.92;99632.87;106681;1268;137669;-78
2022/08/27 11:11:14;;;;;;;17.10;9.50;;;;;;;40.21;18.92;99635.48;106439;1268;112830;-79
2022/08/27 11:14:13;;;;;;;14.10;9.10;;;;;;;39.95;18.28;99637.73;106274;1268;137881;-78
2022/08/27 11:16:50;;;;;;;16.90;9.20;;;;;;;39.54;18.32;99638.58;106461;1268;108945;-76
2022/08/27 11:19:28;;;;;;;22.80;10.20;;;;;;;39.26;18.79;99641.23;106302;1268;138070;-76
2022/08/27 11:22:08;;;;;;;14.00;9.40;;;;;;;39.19;19.31;99641.96;106385;1268;97863;-76
2022/08/27 11:24:49;;;;;;;12.70;8.30;;;;;;;39.22;19.68;99637.52;106323;1268;138194;-76
2022/08/27 11:27:37;;;;;;;12.80;8.50;;;;;;;39.23;19.71;99635.48;106426;1268;108980;-75
2022/08/27 11:30:18;;;;;;;14.00;8.90;;;;;;;39.27;19.18;99635.69;106429;1268;108933;-76
2022/08/27 11:33:00;;;;;;;15.20;8.60;;;;;;;39.18;18.67;99631.20;106291;1268;137819;-76
2022/08/27 11:35:42;;;;;;;15.80;9.10;;;;;;;38.92;18.94;99628.43;106467;1271;97809;-75
2022/08/27 11:38:46;;;;;;;19.00;9.90;;;;;;;38.51;19.04;99632.92;106237;1270;137736;-75
2022/08/27 11:41:47;;;;;;;13.60;9.00;;;;;;;38.30;19.33;99637.85;106374;1268;108964;-75
2022/08/27 11:44:23;;;;;;;14.90;8.70;;;;;;;37.98;18.42;99640.43;106269;1268;137946;-76
2022/08/27 11:47:08;;;;;;;14.50;8.70;;;;;;;37.34;18.71;99631.48;106674;1268;97934;-75
2022/08/27 11:49:45;;;;;;;21.60;9.30;;;;;;;36.56;19.04;99628.55;107520;1268;138214;-76
2022/08/27 11:52:27;;;;;;;17.20;9.10;;;;;;;35.99;19.60;99632.15;107968;1268;112016;-76
2022/08/27 11:55:14;;;;;;;14.60;9.10;;;;;;;35.66;20.19;99634.13;107860;1268;138054;-76